Time;durP1;ratioP1;P1;durP2;ratioP2;P2;SDS_P1;SDS_P2;PMS_P1;PMS_P2;Temp;Humidity;BMP_temperature;BMP_pressure;BME280_temperature;BME280_humidity;BME280_pressure;Samples;Min_cycle;Max_cycle;Signal;HPM_P1;HPM_P2
2023/10/20 00:02:20;;;;;;;8.90;7.10;;;;;;;12.47;99.29;94696.37;108423;1271;22517;-77
2023/10/20 00:04:51;;;;;;;7.40;5.80;;;;;;;12.52;99.28;94692.70;108443;1275;22521;-78
2023/10/20 00:07:22;;;;;;;8.10;6.00;;;;;;;12.58;99.37;94689.52;108402;1276;22553;-77
2023/10/20 00:09:53;;;;;;;8.80;5.80;;;;;;;12.63;99.41;94685.86;108387;1276;22570;-78
2023/10/20 00:12:24;;;;;;;10.50;7.10;;;;;;;12.67;99.19;94682.56;108429;1273;26573;-77
2023/10/20 00:14:55;;;;;;;10.80;7.00;;;;;;;12.69;99.16;94686.11;108436;1273;22524;-78
2023/10/20 00:17:26;;;;;;;9.50;6.50;;;;;;;12.69;98.90;94694.03;108435;1276;23091;-77
2023/10/20 00:19:57;;;;;;;9.60;6.80;;;;;;;12.68;98.76;94693.52;108445;1270;22535;-77
2023/10/20 00:22:29;;;;;;;8.40;5.30;;;;;;;12.67;98.72;94694.41;108436;1276;22533;-77
2023/10/20 00:25:00;;;;;;;9.10;6.90;;;;;;;12.69;98.88;94696.31;108422;1276;24247;-77
2023/10/20 00:27:31;;;;;;;8.00;6.50;;;;;;;12.72;98.73;94699.73;108357;1273;22584;-77
2023/10/20 00:30:07;;;;;;;9.40;6.60;;;;;;;12.73;98.61;94698.07;108391;1276;22637;-77
2023/10/20 00:32:40;;;;;;;9.30;6.40;;;;;;;12.75;98.63;94692.66;108456;1276;22566;-77
2023/10/20 00:35:13;;;;;;;8.80;6.40;;;;;;;12.85;99.01;94689.21;108385;1276;25358;-77
2023/10/20 00:37:44;;;;;;;8.70;5.70;;;;;;;12.93;98.86;94682.89;108414;1273;23173;-77
2023/10/20 00:40:16;;;;;;;8.40;5.90;;;;;;;12.99;98.86;94687.92;108434;1270;22520;-77
2023/10/20 00:42:47;;;;;;;6.40;5.00;;;;;;;12.99;98.56;94686.41;108419;1273;23406;-78
2023/10/20 00:45:20;;;;;;;9.00;7.40;;;;;;;13.03;98.49;94679.05;108429;1276;22534;-78
2023/10/20 00:47:51;;;;;;;10.10;7.70;;;;;;;12.98;98.05;94689.19;108418;1273;22531;-77
2023/10/20 00:50:23;;;;;;;9.00;7.10;;;;;;;12.92;97.85;94688.01;108437;1270;22537;-77
2023/10/20 00:52:54;;;;;;;10.20;7.00;;;;;;;12.85;97.90;94692.62;108427;1273;22554;-77
2023/10/20 00:55:26;;;;;;;8.60;7.00;;;;;;;12.84;97.90;94691.60;108467;1276;22948;-77
2023/10/20 00:57:58;;;;;;;9.40;7.20;;;;;;;12.82;97.86;94687.30;108428;1266;22550;-77
2023/10/20 01:00:29;;;;;;;8.50;7.10;;;;;;;12.81;97.81;94678.30;108452;1276;23081;-78
2023/10/20 01:03:04;;;;;;;8.20;6.70;;;;;;;12.80;97.81;94673.79;108422;1271;22556;-77
2023/10/20 01:05:39;;;;;;;9.40;7.30;;;;;;;12.81;97.92;94676.71;108422;1270;22572;-77
2023/10/20 01:08:10;;;;;;;10.10;6.60;;;;;;;12.82;97.91;94666.05;108397;1276;22627;-77
2023/10/20 01:10:42;;;;;;;9.10;7.30;;;;;;;12.84;97.98;94658.64;108411;1276;22630;-77
2023/10/20 01:13:12;;;;;;;8.20;6.20;;;;;;;12.86;97.96;94655.66;108411;1276;22528;-77
2023/10/20 01:15:46;;;;;;;8.80;6.80;;;;;;;12.90;97.95;94654.30;108442;1273;22539;-77
2023/10/20 01:18:17;;;;;;;8.70;6.70;;;;;;;12.92;97.93;94657.02;108404;1276;25230;-77
2023/10/20 01:20:48;;;;;;;9.00;6.70;;;;;;;12.94;97.87;94663.91;108442;1276;22951;-77
2023/10/20 01:23:18;;;;;;;8.70;5.90;;;;;;;12.95;97.85;94662.81;108445;1271;24225;-77
2023/10/20 01:25:50;;;;;;;8.40;6.50;;;;;;;12.96;97.67;94665.64;108443;1276;22528;-77
2023/10/20 01:28:21;;;;;;;8.50;6.90;;;;;;;12.93;97.68;94662.06;108396;1264;24205;-78
2023/10/20 01:30:52;;;;;;;10.70;7.60;;;;;;;12.92;97.67;94664.23;108433;1276;22528;-77
2023/10/20 01:33:23;;;;;;;9.30;7.00;;;;;;;12.92;97.62;94663.16;108409;1270;22527;-77
2023/10/20 01:35:54;;;;;;;9.60;7.00;;;;;;;12.91;97.59;94649.24;108448;1276;22530;-77
2023/10/20 01:38:24;;;;;;;8.70;6.50;;;;;;;12.90;97.54;94641.08;108398;1276;25576;-77
2023/10/20 01:40:56;;;;;;;7.90;6.60;;;;;;;12.89;97.63;94632.46;108440;1276;22574;-77
2023/10/20 01:43:27;;;;;;;8.80;6.90;;;;;;;12.88;97.62;94632.52;108381;1270;22553;-77
2023/10/20 01:45:58;;;;;;;10.10;7.10;;;;;;;12.85;97.53;94633.73;108416;1276;22541;-77
2023/10/20 01:48:28;;;;;;;9.00;7.50;;;;;;;12.84;97.60;94630.23;108356;1270;22640;-77
2023/10/20 01:51:00;;;;;;;8.80;6.70;;;;;;;12.82;97.58;94625.25;108397;1276;22534;-77
2023/10/20 01:53:34;;;;;;;11.30;7.80;;;;;;;12.81;97.68;94622.85;108430;1262;23110;-78
2023/10/20 01:56:08;;;;;;;8.90;7.40;;;;;;;12.80;97.77;94621.14;108436;1276;22544;-77
2023/10/20 01:58:39;;;;;;;8.40;6.40;;;;;;;12.78;97.75;94618.59;108356;1276;22574;-77
2023/10/20 02:01:11;;;;;;;9.40;6.60;;;;;;;12.76;97.78;94620.14;108417;1273;22622;-78
2023/10/20 02:03:42;;;;;;;8.30;6.60;;;;;;;12.75;97.88;94618.58;108424;1276;22655;-77
2023/10/20 02:06:14;;;;;;;7.00;6.20;;;;;;;12.73;97.84;94617.70;108439;1276;25355;-77
2023/10/20 02:08:45;;;;;;;8.40;6.80;;;;;;;12.70;97.89;94616.18;108416;1269;22531;-77
2023/10/20 02:11:16;;;;;;;8.30;6.80;;;;;;;12.65;97.88;94611.92;108428;1276;22950;-77
2023/10/20 02:13:47;;;;;;;8.80;7.10;;;;;;;12.60;97.97;94610.23;108401;1276;22528;-77
2023/10/20 02:16:20;;;;;;;9.10;7.10;;;;;;;12.55;97.95;94605.60;108427;1276;22755;-77
2023/10/20 02:18:51;;;;;;;10.30;6.90;;;;;;;12.52;98.09;94600.95;108409;1276;23183;-77
2023/10/20 02:21:22;;;;;;;10.20;7.50;;;;;;;12.49;98.23;94596.16;108448;1276;22679;-77
2023/10/20 02:23:53;;;;;;;8.90;6.60;;;;;;;12.45;98.47;94596.54;108440;1275;22518;-77
2023/10/20 02:26:24;;;;;;;10.60;7.50;;;;;;;12.41;98.81;94601.66;108413;1276;22940;-77
2023/10/20 02:28:55;;;;;;;10.40;6.60;;;;;;;12.38;99.12;94603.25;108371;1276;23838;-77
2023/10/20 02:31:26;;;;;;;9.60;6.90;;;;;;;12.39;99.52;94607.98;108427;1271;22524;-77
2023/10/20 02:33:57;;;;;;;8.50;6.70;;;;;;;12.40;99.63;94614.17;108400;1276;22557;-77
2023/10/20 02:36:28;;;;;;;9.50;7.00;;;;;;;12.39;99.72;94615.72;108406;1274;22531;-77
2023/10/20 02:38:58;;;;;;;9.60;6.90;;;;;;;12.37;99.78;94617.23;108475;1268;25988;-77
2023/10/20 02:41:29;;;;;;;9.30;7.20;;;;;;;12.35;99.87;94614.84;108563;1275;22550;-77
2023/10/20 02:44:01;;;;;;;8.50;7.10;;;;;;;12.32;99.92;94614.02;108560;1271;22522;-77
2023/10/20 02:46:34;;;;;;;8.90;7.30;;;;;;;12.28;99.98;94602.52;108564;1275;22527;-77
2023/10/20 02:49:06;;;;;;;8.60;6.90;;;;;;;12.25;100.00;94595.82;108561;1275;25024;-77
2023/10/20 02:51:37;;;;;;;7.90;6.90;;;;;;;12.20;100.00;94595.39;108586;1270;22548;-77
2023/10/20 02:54:09;;;;;;;8.70;6.70;;;;;;;12.16;100.00;94593.83;108593;1268;22523;-77
2023/10/20 02:56:40;;;;;;;9.30;6.80;;;;;;;12.12;100.00;94591.28;108603;1268;22711;-77
2023/10/20 02:59:12;;;;;;;10.80;6.70;;;;;;;12.08;100.00;94589.79;108529;1275;22592;-77
2023/10/20 03:01:43;;;;;;;9.90;6.90;;;;;;;12.04;100.00;94587.42;108571;1275;25223;-77
2023/10/20 03:04:14;;;;;;;8.60;6.80;;;;;;;12.02;100.00;94590.54;108617;1275;22540;-77
2023/10/20 03:06:45;;;;;;;8.80;7.00;;;;;;;11.99;100.00;94592.73;108566;1275;24242;-77
2023/10/20 03:09:19;;;;;;;9.50;7.00;;;;;;;11.97;100.00;94590.86;108543;1275;22593;-77
2023/10/20 03:11:50;;;;;;;10.30;7.10;;;;;;;11.95;100.00;94583.52;108562;1275;22845;-77
2023/10/20 03:14:21;;;;;;;9.60;7.40;;;;;;;11.95;100.00;94581.22;108593;1275;22520;-77
2023/10/20 03:16:52;;;;;;;10.10;8.00;;;;;;;11.92;100.00;94588.27;108575;1267;25434;-77
2023/10/20 03:19:23;;;;;;;9.30;7.30;;;;;;;11.88;100.00;94587.64;108607;1275;22566;-77
2023/10/20 03:21:54;;;;;;;9.60;7.30;;;;;;;11.84;100.00;94582.17;108561;1269;22510;-77
2023/10/20 03:24:25;;;;;;;11.80;7.70;;;;;;;11.83;100.00;94580.23;108618;1275;22526;-77
2023/10/20 03:26:57;;;;;;;9.60;7.30;;;;;;;11.82;100.00;94570.34;108576;1275;23402;-77
2023/10/20 03:29:29;;;;;;;8.80;7.70;;;;;;;11.80;100.00;94561.47;108622;1274;22651;-77
2023/10/20 03:32:00;;;;;;;10.70;7.70;;;;;;;11.76;100.00;94557.37;108582;1275;25670;-77
2023/10/20 03:34:35;;;;;;;8.30;7.00;;;;;;;11.71;100.00;94554.82;108567;1271;22514;-77
2023/10/20 03:37:06;;;;;;;11.60;7.30;;;;;;;11.65;100.00;94555.77;108543;1275;22531;-77
2023/10/20 03:39:37;;;;;;;8.80;6.90;;;;;;;11.58;100.00;94560.19;108588;1268;22595;-78
2023/10/20 03:42:08;;;;;;;9.40;7.60;;;;;;;11.58;100.00;94557.02;108599;1275;22524;-77
2023/10/20 03:44:39;;;;;;;9.30;6.80;;;;;;;11.55;100.00;94555.77;108577;1275;22539;-77
2023/10/20 03:47:13;;;;;;;8.90;7.10;;;;;;;11.50;100.00;94553.14;108569;1268;22524;-77
2023/10/20 03:49:45;;;;;;;8.40;7.10;;;;;;;11.45;100.00;94552.98;108602;1275;25416;-78
2023/10/20 03:52:16;;;;;;;9.30;6.90;;;;;;;11.40;100.00;94552.60;108601;1268;22561;-77
2023/10/20 03:54:47;;;;;;;9.60;6.50;;;;;;;11.34;100.00;94558.23;108561;1270;25115;-77
2023/10/20 03:57:19;;;;;;;9.00;6.90;;;;;;;11.29;100.00;94555.16;108567;1275;22511;-76
2023/10/20 03:59:50;;;;;;;10.10;7.30;;;;;;;11.23;100.00;94555.80;108599;1269;22575;-77
2023/10/20 04:02:21;;;;;;;9.60;7.40;;;;;;;11.18;100.00;94563.00;108613;1275;24432;-77
2023/10/20 04:04:52;;;;;;;9.40;7.40;;;;;;;11.16;100.00;94564.21;108578;1269;25429;-77
2023/10/20 04:07:24;;;;;;;8.80;7.10;;;;;;;11.11;100.00;94567.10;108551;1275;22517;-77
2023/10/20 04:09:56;;;;;;;8.00;6.30;;;;;;;11.00;100.00;94570.68;108570;1275;22536;-77
2023/10/20 04:12:28;;;;;;;9.80;7.70;;;;;;;10.86;100.00;94567.50;108558;1268;22602;-77
2023/10/20 04:14:58;;;;;;;11.00;8.30;;;;;;;10.81;100.00;94555.98;108571;1275;25009;-77
2023/10/20 04:17:29;;;;;;;10.10;8.40;;;;;;;10.83;100.00;94551.71;108571;1275;22524;-77
2023/10/20 04:20:02;;;;;;;9.40;8.00;;;;;;;10.85;100.00;94544.01;108572;1268;22520;-77
2023/10/20 04:22:36;;;;;;;11.80;8.60;;;;;;;10.89;100.00;94539.50;108628;1275;22522;-77
2023/10/20 04:25:12;;;;;;;12.60;8.80;;;;;;;10.90;100.00;94545.13;108601;1275;22860;-77
2023/10/20 04:27:49;;;;;;;10.40;8.00;;;;;;;10.88;100.00;94540.54;108581;1275;22525;-77
2023/10/20 04:42:00;;;;;;;9.30;7.30;;;;;;;10.67;100.00;94537.51;108600;1275;22531;-77
2023/10/20 04:48:12;;;;;;;13.00;8.30;;;;;;;10.59;100.00;94537.10;108513;1268;22533;-77
2023/10/20 04:53:40;;;;;;;12.00;8.90;;;;;;;10.48;100.00;94538.02;108549;1273;22639;-77
2023/10/20 04:56:34;;;;;;;12.30;8.90;;;;;;;10.46;100.00;94538.85;108572;1275;24221;-77
2023/10/20 04:59:09;;;;;;;9.60;8.20;;;;;;;10.48;100.00;94536.71;108552;1270;26766;-78
2023/10/20 05:01:49;;;;;;;10.50;8.50;;;;;;;10.50;100.00;94541.79;108563;1275;22517;-78
2023/10/20 05:04:23;;;;;;;10.50;7.90;;;;;;;10.54;100.00;94532.42;108592;1275;25434;-78
2023/10/20 05:07:05;;;;;;;11.70;8.70;;;;;;;10.59;100.00;94536.71;108592;1275;22511;-78
2023/10/20 05:09:40;;;;;;;10.20;8.10;;;;;;;10.63;100.00;94535.86;108599;1271;22585;-78
2023/10/20 05:12:12;;;;;;;9.40;7.60;;;;;;;10.68;100.00;94539.41;108611;1275;22522;-78
2023/10/20 05:14:43;;;;;;;10.40;8.20;;;;;;;10.66;100.00;94540.27;108567;1268;23847;-78
2023/10/20 05:17:15;;;;;;;9.90;8.30;;;;;;;10.62;100.00;94545.66;108525;1275;22516;-77
2023/10/20 05:19:48;;;;;;;11.10;8.80;;;;;;;10.62;100.00;94547.71;108617;1275;22673;-78
2023/10/20 05:22:19;;;;;;;9.80;8.40;;;;;;;10.66;100.00;94549.88;108554;1266;22694;-78
2023/10/20 05:24:51;;;;;;;9.20;8.00;;;;;;;10.69;100.00;94553.69;108587;1275;22518;-77
2023/10/20 05:27:24;;;;;;;11.20;8.70;;;;;;;10.74;100.00;94546.41;108556;1275;25600;-77
2023/10/20 05:29:55;;;;;;;9.20;8.10;;;;;;;10.75;100.00;94547.21;108592;1275;22598;-78
2023/10/20 05:32:26;;;;;;;10.70;8.60;;;;;;;10.78;100.00;94545.18;108591;1273;22528;-78
2023/10/20 05:35:00;;;;;;;11.00;8.10;;;;;;;10.81;100.00;94538.24;108596;1275;22543;-78
2023/10/20 05:37:32;;;;;;;10.10;8.30;;;;;;;10.85;100.00;94534.96;108480;1268;25298;-78
2023/10/20 05:40:04;;;;;;;11.60;9.00;;;;;;;10.87;100.00;94536.41;108634;1275;22531;-78
2023/10/20 05:42:38;;;;;;;10.60;8.60;;;;;;;10.90;100.00;94534.59;108569;1275;22541;-78
2023/10/20 05:45:10;;;;;;;9.90;8.20;;;;;;;10.92;100.00;94532.99;108603;1269;26475;-78
2023/10/20 05:47:41;;;;;;;10.00;8.50;;;;;;;10.96;100.00;94535.91;108491;1275;22543;-78
2023/10/20 05:50:14;;;;;;;10.30;8.50;;;;;;;10.98;100.00;94543.51;108623;1275;25585;-78
2023/10/20 05:52:46;;;;;;;12.40;8.70;;;;;;;10.99;100.00;94542.02;108603;1268;22529;-78
2023/10/20 05:55:17;;;;;;;13.30;9.50;;;;;;;11.05;100.00;94539.69;108588;1275;22596;-78
2023/10/20 05:57:48;;;;;;;14.80;9.30;;;;;;;11.10;100.00;94538.70;108586;1272;23083;-78
2023/10/20 06:00:20;;;;;;;11.60;8.80;;;;;;;11.15;100.00;94538.19;108620;1268;22597;-78
2023/10/20 06:02:50;;;;;;;13.80;9.20;;;;;;;11.21;100.00;94541.94;108563;1271;22523;-78
2023/10/20 06:05:22;;;;;;;11.10;8.90;;;;;;;11.27;100.00;94545.94;108560;1268;22570;-78
2023/10/20 06:07:53;;;;;;;12.30;9.80;;;;;;;11.34;100.00;94545.97;108568;1275;22655;-78
2023/10/20 06:10:23;;;;;;;11.50;8.80;;;;;;;11.39;100.00;94554.91;108619;1273;22526;-78
2023/10/20 06:12:55;;;;;;;13.80;10.80;;;;;;;11.44;100.00;94556.81;108601;1268;26485;-78
2023/10/20 06:15:26;;;;;;;12.50;9.90;;;;;;;11.47;100.00;94546.38;108556;1275;25288;-78
2023/10/20 06:17:57;;;;;;;12.60;9.90;;;;;;;11.53;100.00;94538.66;108556;1275;22526;-77
2023/10/20 06:20:28;;;;;;;14.50;10.30;;;;;;;11.59;100.00;94533.70;108576;1273;25256;-78
2023/10/20 06:23:02;;;;;;;12.20;10.00;;;;;;;11.65;100.00;94534.91;108608;1275;22530;-78
2023/10/20 06:25:36;;;;;;;13.40;9.40;;;;;;;11.71;100.00;94535.18;108613;1275;25381;-78
2023/10/20 06:28:08;;;;;;;14.60;10.20;;;;;;;11.75;100.00;94539.30;108554;1275;22546;-78
2023/10/20 06:30:43;;;;;;;11.90;9.30;;;;;;;11.78;100.00;94540.46;108611;1275;22539;-78
2023/10/20 06:33:25;;;;;;;14.10;9.20;;;;;;;11.81;100.00;94531.39;108583;1275;25326;-78
2023/10/20 06:36:00;;;;;;;12.00;9.10;;;;;;;11.90;100.00;94521.48;108593;1275;22518;-78
2023/10/20 06:38:37;;;;;;;13.40;9.60;;;;;;;12.08;100.00;94509.60;108665;1275;25158;-78
2023/10/20 06:41:08;;;;;;;10.60;7.90;;;;;;;12.55;100.00;94507.03;108588;1275;22945;-78
2023/10/20 06:43:39;;;;;;;10.60;8.10;;;;;;;13.34;100.00;94507.77;108572;1275;22651;-78
2023/10/20 06:46:10;;;;;;;9.30;6.40;;;;;;;14.15;100.00;94505.34;108596;1275;24228;-78
2023/10/20 06:48:41;;;;;;;7.60;6.00;;;;;;;14.96;100.00;94515.19;108562;1271;22538;-78
2023/10/20 06:51:12;;;;;;;7.20;5.10;;;;;;;15.33;100.00;94515.16;108598;1275;22531;-78
2023/10/20 06:53:43;;;;;;;6.90;5.90;;;;;;;15.23;100.00;94515.16;108588;1271;22538;-78
2023/10/20 06:56:17;;;;;;;11.20;6.80;;;;;;;14.94;100.00;94512.95;108567;1275;25295;-78
2023/10/20 06:58:48;;;;;;;10.40;7.20;;;;;;;14.73;100.00;94511.53;108591;1274;22522;-78
2023/10/20 07:01:19;;;;;;;9.40;7.10;;;;;;;14.47;100.00;94510.16;108620;1275;24258;-78
2023/10/20 07:03:50;;;;;;;13.90;10.20;;;;;;;14.27;100.00;94507.55;108629;1271;22524;-78
2023/10/20 07:06:21;;;;;;;12.90;9.20;;;;;;;14.14;100.00;94508.77;108578;1275;22538;-78
2023/10/20 07:08:52;;;;;;;11.70;8.40;;;;;;;14.06;100.00;94509.59;108597;1275;22996;-78
2023/10/20 07:11:24;;;;;;;11.90;8.10;;;;;;;14.24;100.00;94502.77;108591;1253;22529;-78
2023/10/20 07:13:55;;;;;;;8.90;6.60;;;;;;;14.82;100.00;94503.14;108575;1275;22531;-78
2023/10/20 07:16:27;;;;;;;8.30;6.90;;;;;;;15.16;100.00;94507.96;108566;1275;22550;-78
2023/10/20 07:18:58;;;;;;;8.80;6.70;;;;;;;15.46;100.00;94510.91;108586;1275;25244;-78
2023/10/20 07:21:29;;;;;;;10.00;7.40;;;;;;;15.62;100.00;94511.56;108597;1275;22521;-78
2023/10/20 07:24:02;;;;;;;11.50;8.10;;;;;;;15.54;100.00;94507.06;108605;1275;22531;-78
2023/10/20 07:26:36;;;;;;;10.40;7.50;;;;;;;15.99;100.00;94500.64;108617;1275;25217;-78
2023/10/20 07:29:09;;;;;;;7.30;6.40;;;;;;;17.33;100.00;94491.98;108586;1269;22517;-79
2023/10/20 07:31:42;;;;;;;7.70;5.40;;;;;;;18.17;99.96;94494.60;108602;1275;24195;-79
2023/10/20 07:34:13;;;;;;;6.00;4.60;;;;;;;18.57;99.07;94478.92;108572;1271;22552;-79
2023/10/20 07:36:47;;;;;;;6.10;4.70;;;;;;;18.63;97.32;94482.17;108591;1271;22533;-78
2023/10/20 07:39:20;;;;;;;7.70;4.70;;;;;;;18.65;95.85;94481.95;108530;1271;22851;-78
2023/10/20 07:41:52;;;;;;;7.10;5.00;;;;;;;18.34;94.60;94479.87;108611;1275;22529;-79
2023/10/20 07:44:24;;;;;;;6.50;5.00;;;;;;;17.87;93.90;94488.20;108597;1275;25299;-78
2023/10/20 07:46:55;;;;;;;8.80;5.50;;;;;;;17.70;94.01;94489.63;108593;1275;25243;-78
2023/10/20 07:49:26;;;;;;;9.10;5.30;;;;;;;18.15;94.52;94492.45;108579;1271;22533;-79
2023/10/20 07:51:58;;;;;;;6.90;4.90;;;;;;;18.93;93.78;94493.11;108544;1275;22556;-78
2023/10/20 07:54:29;;;;;;;5.90;5.00;;;;;;;18.93;91.78;94485.36;108584;1271;22540;-79
2023/10/20 07:57:01;;;;;;;6.70;5.10;;;;;;;18.78;91.46;94478.45;108561;1275;22535;-78
2023/10/20 07:59:35;;;;;;;8.40;5.80;;;;;;;19.02;91.61;94477.77;108610;1269;22527;-79
2023/10/20 08:02:09;;;;;;;6.90;5.40;;;;;;;19.26;90.90;94472.70;108575;1271;25348;-79
2023/10/20 08:04:41;;;;;;;8.40;5.60;;;;;;;19.43;90.41;94467.07;108592;1275;24274;-78
2023/10/20 08:07:12;;;;;;;6.50;5.50;;;;;;;19.47;89.45;94462.84;108626;1271;22505;-78
2023/10/20 08:09:43;;;;;;;8.30;6.10;;;;;;;19.29;89.02;94454.27;108632;1275;22569;-78
2023/10/20 08:12:17;;;;;;;7.40;5.70;;;;;;;19.00;88.41;94451.60;108606;1275;23005;-78
2023/10/20 08:14:47;;;;;;;7.60;5.80;;;;;;;18.80;88.55;94453.90;108586;1275;23302;-79
2023/10/20 08:17:18;;;;;;;8.60;6.00;;;;;;;18.67;88.41;94455.13;108574;1275;22521;-78
2023/10/20 08:19:50;;;;;;;7.70;6.10;;;;;;;18.53;88.12;94459.14;108597;1270;24269;-79
2023/10/20 08:22:21;;;;;;;7.60;5.90;;;;;;;18.30;87.61;94462.46;108608;1272;22531;-79
2023/10/20 08:24:52;;;;;;;7.80;5.80;;;;;;;18.01;87.54;94456.48;108624;1268;22555;-77
2023/10/20 08:27:23;;;;;;;7.50;6.10;;;;;;;17.80;88.25;94454.56;108439;1275;169327;-78
2023/10/20 08:29:56;;;;;;;9.50;6.90;;;;;;;17.66;88.53;94457.52;108607;1275;22550;-79
2023/10/20 08:32:27;;;;;;;11.90;6.90;;;;;;;17.52;88.61;94459.98;108600;1275;22532;-78
2023/10/20 08:35:03;;;;;;;9.30;6.60;;;;;;;17.40;88.75;94460.58;108569;1275;25561;-79
2023/10/20 08:37:37;;;;;;;8.30;6.60;;;;;;;17.29;88.83;94452.33;108561;1268;23536;-79
2023/10/20 08:40:11;;;;;;;7.60;6.20;;;;;;;17.25;89.26;94443.36;108574;1275;24200;-78
2023/10/20 08:42:43;;;;;;;8.60;7.20;;;;;;;17.22;89.21;94441.13;108633;1268;22617;-79
2023/10/20 08:45:15;;;;;;;10.60;6.90;;;;;;;17.15;89.28;94434.48;108603;1275;22521;-79
2023/10/20 08:47:47;;;;;;;8.60;6.80;;;;;;;17.06;89.41;94432.30;108552;1275;22520;-78
2023/10/20 08:50:19;;;;;;;10.80;7.20;;;;;;;16.97;89.61;94426.49;108593;1272;25326;-79
2023/10/20 08:52:56;;;;;;;10.10;7.10;;;;;;;16.92;89.98;94425.02;108556;1275;22531;-79
2023/10/20 08:55:27;;;;;;;10.20;7.10;;;;;;;16.91;90.41;94429.98;108614;1271;22543;-79
2023/10/20 08:57:58;;;;;;;9.60;7.00;;;;;;;16.92;90.62;94432.66;108540;1275;22522;-78
2023/10/20 09:00:30;;;;;;;10.80;7.70;;;;;;;16.93;90.70;94439.02;108604;1270;25284;-79
2023/10/20 09:03:02;;;;;;;10.30;7.90;;;;;;;16.88;90.44;94438.52;108619;1275;25367;-79
2023/10/20 09:05:39;;;;;;;10.40;7.30;;;;;;;16.79;90.72;94438.61;108566;1258;22539;-79
2023/10/20 09:08:12;;;;;;;10.50;7.70;;;;;;;16.77;91.11;94434.46;108602;1271;22554;-79
2023/10/20 09:10:46;;;;;;;10.40;8.10;;;;;;;16.77;91.24;94423.52;108587;1275;22541;-79
2023/10/20 09:13:18;;;;;;;10.20;7.70;;;;;;;16.75;91.36;94420.83;108619;1275;22614;-79
2023/10/20 09:15:51;;;;;;;9.70;7.00;;;;;;;16.71;91.64;94420.73;108592;1271;22546;-79
2023/10/20 09:18:25;;;;;;;11.70;8.10;;;;;;;16.65;91.74;94418.89;108566;1268;25363;-79
2023/10/20 09:21:05;;;;;;;10.40;7.50;;;;;;;16.61;91.97;94420.16;108573;1275;22522;-79
2023/10/20 09:23:37;;;;;;;10.00;7.50;;;;;;;16.58;92.10;94418.89;108605;1275;22525;-79
2023/10/20 09:26:09;;;;;;;10.00;7.70;;;;;;;16.56;92.19;94416.20;108567;1275;22564;-79
2023/10/20 09:28:47;;;;;;;11.00;7.60;;;;;;;16.57;92.20;94422.63;108557;1275;24773;-79
2023/10/20 09:31:19;;;;;;;12.20;8.70;;;;;;;16.56;92.43;94416.43;108585;1275;22533;-79
2023/10/20 09:33:51;;;;;;;8.80;7.20;;;;;;;16.56;92.52;94415.44;108582;1271;22572;-79
2023/10/20 09:36:26;;;;;;;10.80;7.90;;;;;;;16.59;92.78;94421.58;108586;1275;22527;-79
2023/10/20 09:38:58;;;;;;;10.40;7.70;;;;;;;16.62;92.66;94419.79;108565;1269;22524;-79
2023/10/20 09:41:30;;;;;;;11.00;7.90;;;;;;;16.68;92.93;94417.63;108617;1275;22524;-79
2023/10/20 09:44:06;;;;;;;10.20;7.90;;;;;;;16.80;93.10;94408.02;108578;1269;23384;-79
2023/10/20 09:46:49;;;;;;;12.10;8.30;;;;;;;16.98;93.47;94401.41;108591;1275;22583;-79
2023/10/20 09:49:23;;;;;;;11.10;8.00;;;;;;;17.22;93.49;94401.19;108529;1275;25356;-79
2023/10/20 09:51:55;;;;;;;10.20;7.70;;;;;;;17.39;93.22;94396.16;108617;1275;22548;-79
2023/10/20 09:54:29;;;;;;;9.70;7.50;;;;;;;17.58;93.19;94388.59;108623;1271;22529;-79
2023/10/20 09:57:03;;;;;;;10.20;7.80;;;;;;;17.85;93.65;94388.17;108587;1271;22528;-78
2023/10/20 09:59:38;;;;;;;11.60;7.60;;;;;;;18.17;93.62;94389.48;108617;1271;22525;-79
2023/10/20 10:02:09;;;;;;;9.40;7.30;;;;;;;18.36;92.77;94388.36;108595;1275;22517;-79
2023/10/20 10:04:44;;;;;;;8.30;4.70;;;;;;;18.41;91.92;94380.84;108568;1274;22528;-79
2023/10/20 10:07:27;;;;;;;9.80;5.20;;;;;;;18.43;90.95;94364.29;108585;1275;22541;-79
2023/10/20 10:09:58;;;;;;;11.30;5.20;;;;;;;18.50;90.53;94351.89;108598;1275;22521;-79
2023/10/20 10:12:30;;;;;;;11.30;5.20;;;;;;;18.63;90.12;94347.52;108605;1275;24508;-78
2023/10/20 10:15:07;;;;;;;6.00;4.30;;;;;;;18.77;89.71;94349.38;108603;1270;22519;-78
2023/10/20 10:17:48;;;;;;;6.30;4.00;;;;;;;18.86;89.30;94350.20;108575;1275;22536;-78
2023/10/20 10:20:24;;;;;;;7.00;4.10;;;;;;;18.91;88.44;94347.66;108567;1271;23208;-78
2023/10/20 10:23:05;;;;;;;12.90;4.90;;;;;;;18.95;88.07;94350.95;108573;1275;22541;-78
2023/10/20 10:25:39;;;;;;;8.90;4.40;;;;;;;19.13;87.94;94344.00;108623;1275;25361;-78
2023/10/20 10:28:18;;;;;;;8.20;4.10;;;;;;;19.28;87.00;94341.67;108576;1275;22535;-78
2023/10/20 10:30:52;;;;;;;8.20;3.80;;;;;;;19.31;86.20;94339.44;108572;1271;22528;-78
2023/10/20 10:33:25;;;;;;;7.70;4.10;;;;;;;19.54;86.33;94337.83;108618;1275;22531;-78
2023/10/20 10:36:09;;;;;;;6.80;3.90;;;;;;;19.76;85.89;94341.17;108601;1275;22564;-78
2023/10/20 10:38:45;;;;;;;7.60;3.90;;;;;;;20.01;85.38;94337.59;108558;1275;22640;-78
2023/10/20 10:41:23;;;;;;;6.70;3.60;;;;;;;20.12;84.50;94338.29;108607;1275;22591;-78
2023/10/20 10:43:56;;;;;;;8.10;5.00;;;;;;;19.98;83.03;94341.38;108602;1275;22695;-78
2023/10/20 10:46:36;;;;;;;9.20;6.00;;;;;;;19.73;82.20;94345.50;108594;1275;22641;-78
2023/10/20 10:49:11;;;;;;;9.20;6.50;;;;;;;19.42;81.84;94339.85;108558;1275;22605;-78
2023/10/20 10:51:47;;;;;;;9.90;6.10;;;;;;;19.20;82.58;94336.01;108596;1275;22553;-78
2023/10/20 10:54:18;;;;;;;11.20;7.50;;;;;;;19.11;83.58;94335.48;108633;1269;22534;-78
2023/10/20 10:56:50;;;;;;;9.60;6.30;;;;;;;19.06;83.95;94334.13;108577;1275;25420;-77
2023/10/20 10:59:21;;;;;;;10.00;6.40;;;;;;;18.98;84.03;94338.20;108590;1275;22636;-77
2023/10/20 11:01:52;;;;;;;9.20;7.40;;;;;;;18.93;84.49;94327.09;108586;1271;22524;-78
2023/10/20 11:04:26;;;;;;;13.60;7.70;;;;;;;18.92;85.19;94317.89;108609;1275;22511;-77
2023/10/20 11:06:57;;;;;;;10.90;7.80;;;;;;;18.94;85.69;94322.48;108585;1269;22519;-77
2023/10/20 11:09:29;;;;;;;10.40;7.30;;;;;;;18.99;86.00;94334.91;108599;1275;22519;-77
2023/10/20 11:12:01;;;;;;;9.10;7.00;;;;;;;19.04;86.19;94339.20;108615;1270;22523;-78
2023/10/20 11:14:32;;;;;;;10.00;7.30;;;;;;;19.06;86.40;94338.96;108588;1269;22522;-78
2023/10/20 11:17:06;;;;;;;11.50;8.40;;;;;;;19.05;86.58;94347.86;108580;1274;22527;-77
2023/10/20 11:19:37;;;;;;;13.60;8.90;;;;;;;18.98;86.60;94354.02;108579;1275;25400;-78
2023/10/20 11:22:18;;;;;;;10.70;8.20;;;;;;;18.88;86.77;94356.72;108616;1275;22538;-77
2023/10/20 11:24:54;;;;;;;11.00;6.00;;;;;;;18.79;87.03;94362.64;108599;1275;22516;-77
2023/10/20 11:27:26;;;;;;;8.70;5.50;;;;;;;18.74;86.49;94356.05;108561;1275;25397;-77
2023/10/20 11:30:00;;;;;;;6.70;4.00;;;;;;;18.75;85.79;94345.09;108606;1275;24221;-78
2023/10/20 11:32:31;;;;;;;10.90;4.00;;;;;;;18.84;84.53;94351.20;108618;1274;25092;-78
2023/10/20 11:35:06;;;;;;;12.70;4.50;;;;;;;18.93;83.90;94349.19;108598;1275;23505;-78
2023/10/20 11:37:37;;;;;;;8.10;4.70;;;;;;;19.00;84.06;94348.17;108573;1273;22627;-77
2023/10/20 11:40:13;;;;;;;8.30;4.00;;;;;;;19.02;83.61;94346.72;108576;1275;22528;-78
2023/10/20 11:42:44;;;;;;;7.50;3.60;;;;;;;19.14;82.71;94350.23;108619;1269;24342;-78
2023/10/20 11:45:15;;;;;;;6.70;3.20;;;;;;;19.31;81.99;94350.02;108583;1275;22514;-78
2023/10/20 11:47:46;;;;;;;10.30;6.00;;;;;;;19.42;81.47;94354.05;108530;1275;22513;-78
2023/10/20 11:50:18;;;;;;;9.10;5.60;;;;;;;19.44;81.59;94350.23;108606;1273;22520;-78
2023/10/20 11:52:49;;;;;;;9.90;4.00;;;;;;;19.37;81.26;94346.63;108612;1271;25345;-78
2023/10/20 11:55:20;;;;;;;13.20;6.10;;;;;;;19.39;81.14;94360.50;108592;1275;23736;-78
2023/10/20 11:57:52;;;;;;;9.50;5.10;;;;;;;19.38;81.25;94361.29;108564;1275;24437;-78
2023/10/20 12:00:23;;;;;;;8.70;5.00;;;;;;;19.35;81.51;94362.06;108584;1275;25439;-78
2023/10/20 12:02:55;;;;;;;7.80;4.80;;;;;;;19.34;81.51;94363.77;108592;1274;22528;-78